Nearby METAR Reports

 

KEWR - Newark, New Jersey, USA
Distance from station: NW 15mi, 25km
Updated: Wed, 14-Nov-2018 12:51pm EST
Mostly cloudy
Mostly cloudy
 Wind from NNW
Wind: NNW 15 mph , 24 km/h, Gust: 24 mph , 39 km/h
Temperature: 41°F , 5°C
Wind Chill: 33°F , 1°C
Dew Point: 12°F , -11°C
Humidity: 31%
Barometer: 30.42 inHg , 1030.1 hPa
Clouds: Mostly cloudy
Visibility: 10 miles , 16 km
Cloud details: Few Clouds 6000 ft
Mostly cloudy 25000 ft
2018/11/14 17:51 KEWR 141751Z 33013G21KT 10SM FEW060 BKN250 05/M11 A3042 RMK AO2 SLP298 T00501106 10056 20022 51001
KJFK - Nyc/Jfk Arpt, New York, USA
Distance from station: NE 15mi, 25km
Updated: Wed, 14-Nov-2018 12:51pm EST
Mostly cloudy
Mostly cloudy
 Wind from NW
Wind: NW 17 mph , 28 km/h, Gust: 25 mph , 41 km/h
Temperature: 41°F , 5°C
Wind Chill: 33°F , 1°C
Dew Point: 16°F , -9°C
Humidity: 36%
Barometer: 30.41 inHg , 1029.8 hPa
Clouds: Mostly cloudy
Visibility: 10 miles , 16 km
Cloud details: Few Clouds 6000 ft
Mostly cloudy 26000 ft
2018/11/14 17:51 KJFK 141751Z 31015G22KT 10SM FEW060 BKN260 05/M09 A3041 RMK AO2 SLP298 T00501089 10050 20028 51003
 
KLDJ - Linden, New Jersey, USA
Distance from station: WNW 15mi, 25km
Updated: Wed, 14-Nov-2018 1:35pm EST
Clear
Clear
 Wind from NW
Wind: NW 13 mph , 20 km/h, Gust: 21 mph , 33 km/h
Temperature: 41°F , 5°C
Wind Chill: 34°F , 1°C
Dew Point: 14°F , -10°C
Humidity: 33%
Barometer: 30.42 inHg , 1030.1 hPa
Clouds: Clear
Visibility: 10 miles , 16 km
2018/11/14 18:35 KLDJ 141835Z AUTO 32011G18KT 10SM CLR 05/M10 A3042 RMK AO2 T00481103
KNYC - Nyc/Central Park, New York, USA
Distance from station: N 20mi, 32km
Updated: Wed, 14-Nov-2018 12:51pm EST
Clear
Clear
 
Temperature: 37°F , 3°C
Dew Point: 12°F , -11°C
Humidity: 35%
Barometer: 30.43 inHg , 1030.5 hPa
Clouds: Clear
Visibility: 10 miles , 16 km
2018/11/14 17:51 KNYC 141751Z AUTO 10SM CLR 03/M11 A3043 RMK AO2 SLP295 T00331106 10039 20022 51004 $
 
KLGA - Nyc/La Guardia, New York, USA
Distance from station: NNE 21mi, 33km
Updated: Wed, 14-Nov-2018 12:51pm EST
Mostly cloudy
Mostly cloudy
 Wind from NNW
Wind: NNW 16 mph , 26 km/h
Temperature: 39°F , 4°C
Wind Chill: 30°F , -1°C
Dew Point: 16°F , -9°C
Humidity: 39%
Barometer: 30.40 inHg , 1029.5 hPa
Clouds: Mostly cloudy
Visibility: 10 miles , 16 km
Cloud details: Few Clouds 5000 ft
Mostly cloudy 25000 ft
2018/11/14 17:51 KLGA 141751Z 34014KT 10SM FEW050 BKN250 04/M09 A3040 RMK AO2 PK WND 32027/1659 SLP295 T00391094 10044 20028 51003
KBLM - Belmar/Farmdale, New Jersey, USA
Distance from station: SSW 24mi, 38km
Updated: Wed, 14-Nov-2018 11:56am EST
NOT Current
Clear
Clear
 Wind from WNW
Wind: WNW 15 mph , 24 km/h, Gust: 22 mph , 35 km/h
Temperature: 41°F , 5°C
Wind Chill: 33°F , 1°C
Dew Point: 19°F , -7°C
Humidity: 42%
Barometer: 30.41 inHg , 1029.8 hPa
Clouds: Clear
Visibility: 10 miles , 16 km
2018/11/14 16:56 KBLM 141656Z AUTO 30013G19KT 10SM CLR 05/M07 A3041 RMK AO2 SLP303 T00501072
 
KTEB - Teterboro, New Jersey, USA
Distance from station: N 25mi, 41km
Updated: Wed, 14-Nov-2018 12:51pm EST
Clear
Clear
 Wind from NNW
Wind: NNW 13 mph , 20 km/h
Temperature: 39°F , 4°C
Wind Chill: 31°F , -1°C
Dew Point: 16°F , -9°C
Humidity: 39%
Barometer: 30.41 inHg , 1029.8 hPa
Clouds: Clear
Visibility: 10 miles , 16 km
2018/11/14 17:51 KTEB 141751Z 33011KT 300V010 10SM CLR 04/M09 A3041 RMK AO2 PK WND 31026/1705 SLP297 T00391089 10050 20022 53002
KMMU - Morristown Muni, New Jersey, USA
Distance from station: NW 29mi, 47km
Updated: Wed, 14-Nov-2018 12:45pm EST
Partly cloudy
Partly cloudy
 Wind from NNW
Wind: NNW 13 mph , 20 km/h, Gust: 20 mph , 31 km/h
Temperature: 39°F , 4°C
Wind Chill: 31°F , -1°C
Dew Point: 14°F , -10°C
Humidity: 36%
Barometer: 30.43 inHg , 1030.5 hPa
Clouds: Partly cloudy
Visibility: 10 miles , 16 km
Cloud details: Few Clouds 9000 ft
Partly cloudy 25000 ft
2018/11/14 17:45 KMMU 141745Z 34011G17KT 10SM FEW090 SCT250 04/M10 A3043
 
KCDW - Caldwell, New Jersey, USA
Distance from station: NNW 30mi, 49km
Updated: Wed, 14-Nov-2018 12:53pm EST
Clear
Clear
 Wind from NW
Wind: NW 10 mph , 17 km/h, Gust: 20 mph , 31 km/h
Temperature: 37°F , 3°C
Wind Chill: 30°F , -1°C
Dew Point: 12°F , -11°C
Humidity: 35%
Barometer: 30.42 inHg , 1030.1 hPa
Clouds: Clear
Visibility: 10 miles , 16 km
2018/11/14 17:53 KCDW 141753Z 31009G17KT 10SM CLR 03/M11 A3042 RMK AO2 SLP307 T00331106 10039 20011 51003
KFRG - Farmingdale, New York, USA
Distance from station: ENE 35mi, 56km
Updated: Wed, 14-Nov-2018 12:53pm EST
Clear
Clear
 Wind from N
Wind: N 16 mph , 26 km/h, Gust: 24 mph , 39 km/h
Temperature: 39°F , 4°C
Wind Chill: 30°F , -1°C
Dew Point: 16°F , -9°C
Humidity: 39%
Barometer: 30.39 inHg , 1029.1 hPa
Clouds: Clear
Visibility: 10 miles , 16 km
2018/11/14 17:53 KFRG 141753Z 35014G21KT 10SM CLR 04/M09 A3039 RMK AO2 SLP291 T00441094 10044 20022 51002
 
KSMQ - Somerville, New Jersey, USA
Distance from station: WNW 36mi, 58km
Updated: Wed, 14-Nov-2018 12:53pm EST
Clear
Clear
 Wind from NNW
Wind: NNW 16 mph , 26 km/h, Gust: 23 mph , 37 km/h
Temperature: 39°F , 4°C
Wind Chill: 30°F , -1°C
Dew Point: 14°F , -10°C
Humidity: 36%
Barometer: 30.41 inHg , 1029.8 hPa
Clouds: Clear
Visibility: 10 miles , 16 km
2018/11/14 17:53 KSMQ 141753Z AUTO 34014G20KT 10SM CLR 04/M10 A3041 RMK AO2 SLP301 T00441100 10050 20022 52002
KNEL - Lakehurst Nas, New Jersey, USA
Distance from station: SSW 38mi, 61km
Updated: Wed, 14-Nov-2018 1:00pm EST
Clear
Clear
 Wind from NW
Wind: NW 10 mph , 17 km/h, Gust: 18 mph , 30 km/h
Temperature: 43°F , 6°C
Wind Chill: 37°F , 3°C
Dew Point: 18°F , -8°C
Humidity: 36%
Barometer: 30.40 inHg , 1029.5 hPa
Clouds: Clear
Visibility: 10 miles , 16 km
2018/11/14 18:00 KNEL 141800Z 32009G16KT 290V350 10SM CLR 06/M08 A3040 RMK AO2 SLP292 6//// T00611083 10072 20033 50005 PNO
 
KHPN - White Plains, New York, USA
Distance from station: NNE 42mi, 68km
Updated: Wed, 14-Nov-2018 12:56pm EST
Partly cloudy
Partly cloudy
 Wind from NW
Wind: NW 13 mph , 20 km/h, Gust: 24 mph , 39 km/h
Temperature: 36°F , 2°C
Wind Chill: 27°F , -3°C
Dew Point: 16°F , -9°C
Humidity: 44%
Barometer: 30.38 inHg , 1028.8 hPa
Clouds: Partly cloudy
Visibility: 10 miles , 16 km
Cloud details: Partly cloudy 5000 ft
2018/11/14 17:56 KHPN 141756Z 32011G21KT 10SM SCT050 02/M09 A3038 RMK AO2 PK WND 30027/1729 SLP294 T00221094 10039 20006 51007
KMJX - Toms River, New Jersey, USA
Distance from station: SSW 42mi, 68km
Updated: Wed, 14-Nov-2018 12:56pm EST
Clear
Clear
 Wind from N
Wind: N 10 mph , 17 km/h, Gust: 23 mph , 37 km/h
Temperature: 43°F , 6°C
Wind Chill: 37°F , 3°C
Dew Point: 19°F , -7°C
Humidity: 39%
Barometer: 30.41 inHg , 1029.8 hPa
Clouds: Clear
Visibility: 10 miles , 16 km
2018/11/14 17:56 KMJX 141756Z AUTO 36009G20KT 10SM CLR 06/M07 A3041 RMK AO2 SLP303 T00561072 10056 20028 50000
 
KWRI - Wrightst/Mcguire, New Jersey, USA
Distance from station: SW 45mi, 73km
Updated: Wed, 14-Nov-2018 12:56pm EST
Few Clouds
Few Clouds
 Wind from WNW
Wind: WNW 13 mph , 20 km/h
Temperature: 43°F , 6°C
Wind Chill: 36°F , 2°C
Dew Point: 19°F , -7°C
Humidity: 39%
Barometer: 30.38 inHg , 1028.8 hPa
Clouds: Few Clouds
Visibility: 10 miles , 16 km
Cloud details: Few Clouds 14000 ft
Few Clouds 18000 ft
Few Clouds 20000 ft
2018/11/14 17:56 KWRI 141756Z 30011KT 10SM FEW140 FEW180 FEW200 06/M07 A3038 RMK AO2A SLP288 T00591073 10063 20024 50000 RVRNO $
KTTN - Trenton, New Jersey, USA
Distance from station: WSW 46mi, 73km
Updated: Wed, 14-Nov-2018 12:53pm EST
Clear
Clear
 Wind from NW
Wind: NW 13 mph , 20 km/h, Gust: 20 mph , 31 km/h
Temperature: 41°F , 5°C
Wind Chill: 34°F , 1°C
Dew Point: 16°F , -9°C
Humidity: 36%
Barometer: 30.41 inHg , 1029.8 hPa
Clouds: Clear
Visibility: 10 miles , 16 km
2018/11/14 17:53 KTTN 141753Z 32011G17KT 10SM CLR 05/M09 A3041 RMK AO2 SLP293 T00501089 10056 20022 58001